sensor_id;sensor_type;location;lat;lon;timestamp;temperature;humidity
18287;DHT22;9269;50.838;12.094;2022-12-10T00:01:31;5.10;62.70
18287;DHT22;9269;50.838;12.094;2022-12-10T00:04:02;5.20;62.90
18287;DHT22;9269;50.838;12.094;2022-12-10T00:06:32;4.90;62.70
18287;DHT22;9269;50.838;12.094;2022-12-10T00:09:05;4.90;62.90
18287;DHT22;9269;50.838;12.094;2022-12-10T00:11:35;5.20;62.80
18287;DHT22;9269;50.838;12.094;2022-12-10T00:14:05;5.10;62.70
18287;DHT22;9269;50.838;12.094;2022-12-10T00:16:35;5.10;62.40
18287;DHT22;9269;50.838;12.094;2022-12-10T00:19:04;5.10;62.70
18287;DHT22;9269;50.838;12.094;2022-12-10T00:21:34;5.10;62.10
18287;DHT22;9269;50.838;12.094;2022-12-10T00:24:04;5.20;62.40
18287;DHT22;9269;50.838;12.094;2022-12-10T00:26:35;5.20;62.60
18287;DHT22;9269;50.838;12.094;2022-12-10T00:29:06;5.20;62.20
18287;DHT22;9269;50.838;12.094;2022-12-10T00:31:36;5.10;62.40
18287;DHT22;9269;50.838;12.094;2022-12-10T00:34:07;5.00;62.40
18287;DHT22;9269;50.838;12.094;2022-12-10T00:36:39;5.10;62.50
18287;DHT22;9269;50.838;12.094;2022-12-10T00:39:10;5.00;62.50
18287;DHT22;9269;50.838;12.094;2022-12-10T00:41:40;5.00;62.70
18287;DHT22;9269;50.838;12.094;2022-12-10T00:44:11;5.10;62.60
18287;DHT22;9269;50.838;12.094;2022-12-10T00:46:40;5.00;62.20
18287;DHT22;9269;50.838;12.094;2022-12-10T00:49:10;5.00;62.40
18287;DHT22;9269;50.838;12.094;2022-12-10T00:51:39;5.10;62.40
18287;DHT22;9269;50.838;12.094;2022-12-10T00:54:08;5.10;62.40
18287;DHT22;9269;50.838;12.094;2022-12-10T00:56:38;5.10;62.20
18287;DHT22;9269;50.838;12.094;2022-12-10T00:59:07;5.10;62.40
18287;DHT22;9269;50.838;12.094;2022-12-10T01:01:38;5.20;61.80
18287;DHT22;9269;50.838;12.094;2022-12-10T01:04:09;5.00;62.10
18287;DHT22;9269;50.838;12.094;2022-12-10T01:06:41;5.10;62.40
18287;DHT22;9269;50.838;12.094;2022-12-10T01:09:14;5.10;62.30
18287;DHT22;9269;50.838;12.094;2022-12-10T01:11:44;5.20;62.10
18287;DHT22;9269;50.838;12.094;2022-12-10T01:14:17;5.20;62.30
18287;DHT22;9269;50.838;12.094;2022-12-10T01:16:48;5.10;62.50
18287;DHT22;9269;50.838;12.094;2022-12-10T01:19:19;5.20;62.40
18287;DHT22;9269;50.838;12.094;2022-12-10T01:21:50;5.20;62.20
18287;DHT22;9269;50.838;12.094;2022-12-10T01:24:18;5.10;62.40
18287;DHT22;9269;50.838;12.094;2022-12-10T01:26:47;5.20;62.40
18287;DHT22;9269;50.838;12.094;2022-12-10T01:29:16;5.10;62.10
18287;DHT22;9269;50.838;12.094;2022-12-10T01:31:45;5.20;62.10
18287;DHT22;9269;50.838;12.094;2022-12-10T01:34:16;5.10;62.10
18287;DHT22;9269;50.838;12.094;2022-12-10T01:36:49;5.10;62.00
18287;DHT22;9269;50.838;12.094;2022-12-10T01:39:21;5.20;62.10
18287;DHT22;9269;50.838;12.094;2022-12-10T01:41:53;4.90;62.10
18287;DHT22;9269;50.838;12.094;2022-12-10T01:44:56;4.90;61.80
18287;DHT22;9269;50.838;12.094;2022-12-10T01:47:27;5.10;62.00
18287;DHT22;9269;50.838;12.094;2022-12-10T01:49:57;5.00;62.10
18287;DHT22;9269;50.838;12.094;2022-12-10T01:52:26;4.90;62.10
18287;DHT22;9269;50.838;12.094;2022-12-10T01:54:55;4.90;61.90
18287;DHT22;9269;50.838;12.094;2022-12-10T01:57:26;4.90;62.30
18287;DHT22;9269;50.838;12.094;2022-12-10T02:00:00;4.90;62.20
18287;DHT22;9269;50.838;12.094;2022-12-10T02:02:38;5.20;62.10
18287;DHT22;9269;50.838;12.094;2022-12-10T02:05:21;4.80;62.30
18287;DHT22;9269;50.838;12.094;2022-12-10T02:07:59;5.00;62.10
18287;DHT22;9269;50.838;12.094;2022-12-10T02:10:59;5.10;62.30
18287;DHT22;9269;50.838;12.094;2022-12-10T02:13:34;4.80;62.40
18287;DHT22;9269;50.838;12.094;2022-12-10T02:16:08;5.00;62.10
18287;DHT22;9269;50.838;12.094;2022-12-10T02:18:39;4.90;62.20
18287;DHT22;9269;50.838;12.094;2022-12-10T02:21:15;4.80;62.40
18287;DHT22;9269;50.838;12.094;2022-12-10T02:23:51;4.90;62.40
18287;DHT22;9269;50.838;12.094;2022-12-10T02:26:26;5.10;62.30
18287;DHT22;9269;50.838;12.094;2022-12-10T02:29:07;5.00;62.30
18287;DHT22;9269;50.838;12.094;2022-12-10T02:31:42;5.00;62.60
18287;DHT22;9269;50.838;12.094;2022-12-10T02:34:13;4.90;61.90
18287;DHT22;9269;50.838;12.094;2022-12-10T02:36:44;4.80;62.30
18287;DHT22;9269;50.838;12.094;2022-12-10T02:39:17;4.90;62.20
18287;DHT22;9269;50.838;12.094;2022-12-10T02:41:50;5.10;61.80
18287;DHT22;9269;50.838;12.094;2022-12-10T02:44:22;5.00;61.80
18287;DHT22;9269;50.838;12.094;2022-12-10T02:46:54;4.90;61.90
18287;DHT22;9269;50.838;12.094;2022-12-10T02:49:24;4.90;62.30
18287;DHT22;9269;50.838;12.094;2022-12-10T02:51:54;4.90;62.20
18287;DHT22;9269;50.838;12.094;2022-12-10T02:54:41;4.90;62.50
18287;DHT22;9269;50.838;12.094;2022-12-10T02:57:22;4.90;62.60
18287;DHT22;9269;50.838;12.094;2022-12-10T03:00:04;4.90;62.80
18287;DHT22;9269;50.838;12.094;2022-12-10T03:02:46;4.90;62.60
18287;DHT22;9269;50.838;12.094;2022-12-10T03:05:21;4.90;62.50
18287;DHT22;9269;50.838;12.094;2022-12-10T03:07:56;4.80;62.40
18287;DHT22;9269;50.838;12.094;2022-12-10T03:10:29;4.70;62.30
18287;DHT22;9269;50.838;12.094;2022-12-10T03:13:03;4.90;63.00
18287;DHT22;9269;50.838;12.094;2022-12-10T03:15:36;4.70;62.60
18287;DHT22;9269;50.838;12.094;2022-12-10T03:18:07;4.70;62.60
18287;DHT22;9269;50.838;12.094;2022-12-10T03:20:39;4.80;62.30
18287;DHT22;9269;50.838;12.094;2022-12-10T03:23:11;4.80;62.30
18287;DHT22;9269;50.838;12.094;2022-12-10T03:25:40;4.90;62.10
18287;DHT22;9269;50.838;12.094;2022-12-10T03:28:10;4.70;62.10
18287;DHT22;9269;50.838;12.094;2022-12-10T03:30:40;4.70;62.30
18287;DHT22;9269;50.838;12.094;2022-12-10T03:33:10;4.90;62.20
18287;DHT22;9269;50.838;12.094;2022-12-10T03:35:40;4.80;62.20
18287;DHT22;9269;50.838;12.094;2022-12-10T03:38:10;5.00;62.60
18287;DHT22;9269;50.838;12.094;2022-12-10T03:40:38;4.80;62.20
18287;DHT22;9269;50.838;12.094;2022-12-10T03:43:07;4.70;62.60
18287;DHT22;9269;50.838;12.094;2022-12-10T03:45:35;4.70;62.60
18287;DHT22;9269;50.838;12.094;2022-12-10T03:48:05;4.70;63.00
18287;DHT22;9269;50.838;12.094;2022-12-10T03:50:34;4.80;62.80
18287;DHT22;9269;50.838;12.094;2022-12-10T03:53:03;5.00;62.70
18287;DHT22;9269;50.838;12.094;2022-12-10T03:55:31;4.80;62.50
18287;DHT22;9269;50.838;12.094;2022-12-10T03:58:00;5.00;63.00
18287;DHT22;9269;50.838;12.094;2022-12-10T04:00:28;4.70;62.70
18287;DHT22;9269;50.838;12.094;2022-12-10T04:02:57;4.90;62.10
18287;DHT22;9269;50.838;12.094;2022-12-10T04:05:27;4.90;62.40
18287;DHT22;9269;50.838;12.094;2022-12-10T04:07:55;4.90;62.10
18287;DHT22;9269;50.838;12.094;2022-12-10T04:10:24;4.70;62.70
18287;DHT22;9269;50.838;12.094;2022-12-10T04:12:52;4.60;62.70
18287;DHT22;9269;50.838;12.094;2022-12-10T04:15:38;4.60;62.20
18287;DHT22;9269;50.838;12.094;2022-12-10T04:18:24;4.80;62.70
18287;DHT22;9269;50.838;12.094;2022-12-10T04:20:55;4.80;62.50
18287;DHT22;9269;50.838;12.094;2022-12-10T04:23:41;4.70;62.60
18287;DHT22;9269;50.838;12.094;2022-12-10T04:26:32;4.80;62.30
18287;DHT22;9269;50.838;12.094;2022-12-10T04:29:19;4.80;62.60
18287;DHT22;9269;50.838;12.094;2022-12-10T04:31:48;4.90;62.40
18287;DHT22;9269;50.838;12.094;2022-12-10T04:34:16;4.60;62.60
18287;DHT22;9269;50.838;12.094;2022-12-10T04:36:46;4.90;62.50
18287;DHT22;9269;50.838;12.094;2022-12-10T04:39:15;4.80;62.10
18287;DHT22;9269;50.838;12.094;2022-12-10T04:41:45;4.80;62.20
18287;DHT22;9269;50.838;12.094;2022-12-10T04:44:14;4.70;62.00
18287;DHT22;9269;50.838;12.094;2022-12-10T04:46:42;4.70;61.80
18287;DHT22;9269;50.838;12.094;2022-12-10T04:49:11;4.60;61.80
18287;DHT22;9269;50.838;12.094;2022-12-10T04:51:40;4.80;61.70
18287;DHT22;9269;50.838;12.094;2022-12-10T04:54:13;4.80;61.50
18287;DHT22;9269;50.838;12.094;2022-12-10T04:56:42;4.70;61.70
18287;DHT22;9269;50.838;12.094;2022-12-10T04:59:10;4.80;61.60
18287;DHT22;9269;50.838;12.094;2022-12-10T05:01:39;4.80;61.50
18287;DHT22;9269;50.838;12.094;2022-12-10T05:04:10;4.70;61.80
18287;DHT22;9269;50.838;12.094;2022-12-10T05:06:41;4.80;61.80
18287;DHT22;9269;50.838;12.094;2022-12-10T05:09:10;4.60;61.70
18287;DHT22;9269;50.838;12.094;2022-12-10T05:11:41;4.70;61.40
18287;DHT22;9269;50.838;12.094;2022-12-10T05:14:13;4.80;61.30
18287;DHT22;9269;50.838;12.094;2022-12-10T05:16:41;4.70;61.70
18287;DHT22;9269;50.838;12.094;2022-12-10T05:19:10;4.80;62.00
18287;DHT22;9269;50.838;12.094;2022-12-10T05:21:39;4.80;61.70
18287;DHT22;9269;50.838;12.094;2022-12-10T05:24:34;4.60;62.10
18287;DHT22;9269;50.838;12.094;2022-12-10T05:27:04;4.70;62.10
18287;DHT22;9269;50.838;12.094;2022-12-10T05:29:33;4.60;61.70
18287;DHT22;9269;50.838;12.094;2022-12-10T05:32:03;4.80;61.50
18287;DHT22;9269;50.838;12.094;2022-12-10T05:34:32;4.70;61.40
18287;DHT22;9269;50.838;12.094;2022-12-10T05:37:00;4.70;61.60
18287;DHT22;9269;50.838;12.094;2022-12-10T05:39:29;4.80;61.50
18287;DHT22;9269;50.838;12.094;2022-12-10T05:41:58;4.70;61.60
18287;DHT22;9269;50.838;12.094;2022-12-10T05:44:28;4.80;61.60
18287;DHT22;9269;50.838;12.094;2022-12-10T05:46:56;4.90;61.80
18287;DHT22;9269;50.838;12.094;2022-12-10T05:49:25;4.90;61.50
18287;DHT22;9269;50.838;12.094;2022-12-10T05:51:54;4.80;61.80
18287;DHT22;9269;50.838;12.094;2022-12-10T05:54:24;4.80;61.60
18287;DHT22;9269;50.838;12.094;2022-12-10T05:56:52;4.80;61.70
18287;DHT22;9269;50.838;12.094;2022-12-10T05:59:21;4.60;61.70
18287;DHT22;9269;50.838;12.094;2022-12-10T06:01:52;4.80;61.80
18287;DHT22;9269;50.838;12.094;2022-12-10T06:04:20;4.90;61.30
18287;DHT22;9269;50.838;12.094;2022-12-10T06:06:49;4.90;61.70
18287;DHT22;9269;50.838;12.094;2022-12-10T06:09:17;4.50;61.80
18287;DHT22;9269;50.838;12.094;2022-12-10T06:11:46;4.80;61.80
18287;DHT22;9269;50.838;12.094;2022-12-10T06:14:15;4.50;61.60
18287;DHT22;9269;50.838;12.094;2022-12-10T06:16:43;4.70;61.80
18287;DHT22;9269;50.838;12.094;2022-12-10T06:19:13;4.80;61.80
18287;DHT22;9269;50.838;12.094;2022-12-10T06:21:42;4.80;61.90
18287;DHT22;9269;50.838;12.094;2022-12-10T06:24:10;4.50;61.60
18287;DHT22;9269;50.838;12.094;2022-12-10T06:26:38;4.70;61.60
18287;DHT22;9269;50.838;12.094;2022-12-10T06:29:09;4.70;62.00
18287;DHT22;9269;50.838;12.094;2022-12-10T06:31:37;4.50;61.60
18287;DHT22;9269;50.838;12.094;2022-12-10T06:34:06;4.80;61.50
18287;DHT22;9269;50.838;12.094;2022-12-10T06:36:36;4.60;61.70
18287;DHT22;9269;50.838;12.094;2022-12-10T06:39:05;4.70;61.30
18287;DHT22;9269;50.838;12.094;2022-12-10T06:41:33;4.80;61.80
18287;DHT22;9269;50.838;12.094;2022-12-10T06:44:02;4.70;61.40
18287;DHT22;9269;50.838;12.094;2022-12-10T06:46:30;4.80;61.00
18287;DHT22;9269;50.838;12.094;2022-12-10T06:48:59;4.70;61.50
18287;DHT22;9269;50.838;12.094;2022-12-10T06:51:28;4.60;61.60
18287;DHT22;9269;50.838;12.094;2022-12-10T06:53:58;4.60;61.70
18287;DHT22;9269;50.838;12.094;2022-12-10T06:56:26;4.60;61.80
18287;DHT22;9269;50.838;12.094;2022-12-10T06:58:55;4.60;61.50
18287;DHT22;9269;50.838;12.094;2022-12-10T07:01:24;4.70;61.50
18287;DHT22;9269;50.838;12.094;2022-12-10T07:03:56;4.70;61.40
18287;DHT22;9269;50.838;12.094;2022-12-10T07:06:26;4.60;61.50
18287;DHT22;9269;50.838;12.094;2022-12-10T07:08:55;4.50;61.80
18287;DHT22;9269;50.838;12.094;2022-12-10T07:11:26;4.60;61.90
18287;DHT22;9269;50.838;12.094;2022-12-10T07:13:55;4.60;61.40
18287;DHT22;9269;50.838;12.094;2022-12-10T07:16:25;4.60;61.30
18287;DHT22;9269;50.838;12.094;2022-12-10T07:18:55;4.80;61.30
18287;DHT22;9269;50.838;12.094;2022-12-10T07:21:26;4.40;61.60
18287;DHT22;9269;50.838;12.094;2022-12-10T07:23:57;4.50;61.00
18287;DHT22;9269;50.838;12.094;2022-12-10T07:26:34;4.50;61.30
18287;DHT22;9269;50.838;12.094;2022-12-10T07:29:03;4.50;61.40
18287;DHT22;9269;50.838;12.094;2022-12-10T07:31:33;4.50;61.30
18287;DHT22;9269;50.838;12.094;2022-12-10T07:34:02;4.50;61.20
18287;DHT22;9269;50.838;12.094;2022-12-10T07:36:30;4.40;61.10
18287;DHT22;9269;50.838;12.094;2022-12-10T07:38:59;4.30;60.90
18287;DHT22;9269;50.838;12.094;2022-12-10T07:41:28;4.20;61.20
18287;DHT22;9269;50.838;12.094;2022-12-10T07:43:58;4.40;61.00
18287;DHT22;9269;50.838;12.094;2022-12-10T07:46:29;4.50;61.10
18287;DHT22;9269;50.838;12.094;2022-12-10T07:49:00;4.40;61.10
18287;DHT22;9269;50.838;12.094;2022-12-10T07:51:29;4.40;61.00
18287;DHT22;9269;50.838;12.094;2022-12-10T07:53:58;4.40;61.10
18287;DHT22;9269;50.838;12.094;2022-12-10T07:56:28;4.40;61.00
18287;DHT22;9269;50.838;12.094;2022-12-10T07:58:58;4.30;60.90
18287;DHT22;9269;50.838;12.094;2022-12-10T08:01:26;4.30;60.80
18287;DHT22;9269;50.838;12.094;2022-12-10T08:03:55;4.50;60.50
18287;DHT22;9269;50.838;12.094;2022-12-10T08:06:26;4.40;60.50
18287;DHT22;9269;50.838;12.094;2022-12-10T08:08:57;4.40;60.60
18287;DHT22;9269;50.838;12.094;2022-12-10T08:11:28;4.40;60.50
18287;DHT22;9269;50.838;12.094;2022-12-10T08:14:00;4.50;60.70
18287;DHT22;9269;50.838;12.094;2022-12-10T08:16:29;4.30;60.40
18287;DHT22;9269;50.838;12.094;2022-12-10T08:19:00;4.40;60.50
18287;DHT22;9269;50.838;12.094;2022-12-10T08:21:30;4.50;60.30
18287;DHT22;9269;50.838;12.094;2022-12-10T08:23:59;4.50;60.20
18287;DHT22;9269;50.838;12.094;2022-12-10T08:26:30;4.40;60.50
18287;DHT22;9269;50.838;12.094;2022-12-10T08:29:01;4.40;60.20
18287;DHT22;9269;50.838;12.094;2022-12-10T08:31:30;4.30;60.20
18287;DHT22;9269;50.838;12.094;2022-12-10T08:34:04;4.50;60.40
18287;DHT22;9269;50.838;12.094;2022-12-10T08:36:33;4.50;60.50
18287;DHT22;9269;50.838;12.094;2022-12-10T08:39:02;4.50;60.20
18287;DHT22;9269;50.838;12.094;2022-12-10T08:41:31;4.30;60.10
18287;DHT22;9269;50.838;12.094;2022-12-10T08:44:02;4.40;60.10
18287;DHT22;9269;50.838;12.094;2022-12-10T08:46:30;4.40;60.20
18287;DHT22;9269;50.838;12.094;2022-12-10T08:48:59;4.30;60.20
18287;DHT22;9269;50.838;12.094;2022-12-10T08:51:27;4.40;60.20
18287;DHT22;9269;50.838;12.094;2022-12-10T08:53:56;4.30;60.50
18287;DHT22;9269;50.838;12.094;2022-12-10T08:56:25;4.30;60.20
18287;DHT22;9269;50.838;12.094;2022-12-10T08:58:53;4.50;60.50
18287;DHT22;9269;50.838;12.094;2022-12-10T09:01:23;4.50;60.10
18287;DHT22;9269;50.838;12.094;2022-12-10T09:03:52;4.50;60.30
18287;DHT22;9269;50.838;12.094;2022-12-10T09:06:23;4.60;60.10
18287;DHT22;9269;50.838;12.094;2022-12-10T09:08:52;4.70;60.20
18287;DHT22;9269;50.838;12.094;2022-12-10T09:11:24;4.30;60.00
18287;DHT22;9269;50.838;12.094;2022-12-10T09:13:53;4.40;60.20
18287;DHT22;9269;50.838;12.094;2022-12-10T09:16:27;4.50;60.10
18287;DHT22;9269;50.838;12.094;2022-12-10T09:18:57;4.70;60.40
18287;DHT22;9269;50.838;12.094;2022-12-10T09:21:27;4.50;60.00
18287;DHT22;9269;50.838;12.094;2022-12-10T09:23:58;4.50;60.50
18287;DHT22;9269;50.838;12.094;2022-12-10T09:26:27;4.30;60.10
18287;DHT22;9269;50.838;12.094;2022-12-10T09:28:56;4.40;60.10
18287;DHT22;9269;50.838;12.094;2022-12-10T09:31:27;4.40;60.10
18287;DHT22;9269;50.838;12.094;2022-12-10T09:33:56;4.40;59.90
18287;DHT22;9269;50.838;12.094;2022-12-10T09:36:24;4.50;60.20
18287;DHT22;9269;50.838;12.094;2022-12-10T09:38:59;4.20;60.10
18287;DHT22;9269;50.838;12.094;2022-12-10T09:41:54;4.50;60.50
18287;DHT22;9269;50.838;12.094;2022-12-10T09:44:36;4.40;60.40
18287;DHT22;9269;50.838;12.094;2022-12-10T09:47:08;4.40;60.10
18287;DHT22;9269;50.838;12.094;2022-12-10T09:49:49;4.40;60.20
18287;DHT22;9269;50.838;12.094;2022-12-10T09:52:22;4.40;60.20
18287;DHT22;9269;50.838;12.094;2022-12-10T09:54:54;4.40;60.40
18287;DHT22;9269;50.838;12.094;2022-12-10T09:57:27;4.40;60.00
18287;DHT22;9269;50.838;12.094;2022-12-10T10:00:00;4.30;59.90
18287;DHT22;9269;50.838;12.094;2022-12-10T10:02:31;4.50;60.10
18287;DHT22;9269;50.838;12.094;2022-12-10T10:05:11;4.40;60.00
18287;DHT22;9269;50.838;12.094;2022-12-10T10:07:44;4.30;60.00
18287;DHT22;9269;50.838;12.094;2022-12-10T10:10:21;4.30;59.90
18287;DHT22;9269;50.838;12.094;2022-12-10T10:12:52;4.20;60.20
18287;DHT22;9269;50.838;12.094;2022-12-10T10:15:26;4.30;60.50
18287;DHT22;9269;50.838;12.094;2022-12-10T10:18:00;4.40;60.30
18287;DHT22;9269;50.838;12.094;2022-12-10T10:20:31;4.20;60.50
18287;DHT22;9269;50.838;12.094;2022-12-10T10:22:59;4.20;60.80
18287;DHT22;9269;50.838;12.094;2022-12-10T10:25:28;4.40;60.40
18287;DHT22;9269;50.838;12.094;2022-12-10T10:27:57;4.50;60.40
18287;DHT22;9269;50.838;12.094;2022-12-10T10:30:26;4.20;60.50
18287;DHT22;9269;50.838;12.094;2022-12-10T10:32:57;4.40;60.50
18287;DHT22;9269;50.838;12.094;2022-12-10T10:35:29;4.20;60.30
18287;DHT22;9269;50.838;12.094;2022-12-10T10:38:01;4.30;60.80
18287;DHT22;9269;50.838;12.094;2022-12-10T10:40:32;4.30;60.60
18287;DHT22;9269;50.838;12.094;2022-12-10T10:43:02;4.40;60.70
18287;DHT22;9269;50.838;12.094;2022-12-10T10:45:37;4.50;60.80
18287;DHT22;9269;50.838;12.094;2022-12-10T10:48:14;4.30;60.40
18287;DHT22;9269;50.838;12.094;2022-12-10T10:50:45;4.40;60.60
18287;DHT22;9269;50.838;12.094;2022-12-10T10:53:42;4.40;60.40
18287;DHT22;9269;50.838;12.094;2022-12-10T10:56:13;4.30;60.40
18287;DHT22;9269;50.838;12.094;2022-12-10T10:58:56;4.30;60.40
18287;DHT22;9269;50.838;12.094;2022-12-10T11:01:43;4.40;60.60
18287;DHT22;9269;50.838;12.094;2022-12-10T11:04:14;4.30;60.80
18287;DHT22;9269;50.838;12.094;2022-12-10T11:06:44;4.20;60.40
18287;DHT22;9269;50.838;12.094;2022-12-10T11:09:20;4.40;60.60
18287;DHT22;9269;50.838;12.094;2022-12-10T11:11:50;4.30;60.70
18287;DHT22;9269;50.838;12.094;2022-12-10T11:14:24;4.10;60.50
18287;DHT22;9269;50.838;12.094;2022-12-10T11:17:00;4.20;60.80
18287;DHT22;9269;50.838;12.094;2022-12-10T11:19:31;4.20;60.50
18287;DHT22;9269;50.838;12.094;2022-12-10T11:22:16;4.50;60.50
18287;DHT22;9269;50.838;12.094;2022-12-10T11:24:46;4.50;60.50
18287;DHT22;9269;50.838;12.094;2022-12-10T11:27:28;4.20;60.40
18287;DHT22;9269;50.838;12.094;2022-12-10T11:30:02;4.40;60.90
18287;DHT22;9269;50.838;12.094;2022-12-10T11:32:55;4.10;60.90
18287;DHT22;9269;50.838;12.094;2022-12-10T11:35:38;4.30;60.50
18287;DHT22;9269;50.838;12.094;2022-12-10T11:38:21;4.30;60.60
18287;DHT22;9269;50.838;12.094;2022-12-10T11:40:57;4.30;60.50
18287;DHT22;9269;50.838;12.094;2022-12-10T11:43:42;4.30;60.50
18287;DHT22;9269;50.838;12.094;2022-12-10T11:46:24;4.30;60.60
18287;DHT22;9269;50.838;12.094;2022-12-10T11:49:01;4.20;60.30
18287;DHT22;9269;50.838;12.094;2022-12-10T11:51:40;4.30;60.40
18287;DHT22;9269;50.838;12.094;2022-12-10T11:54:24;4.30;60.50
18287;DHT22;9269;50.838;12.094;2022-12-10T11:57:02;4.50;60.20
18287;DHT22;9269;50.838;12.094;2022-12-10T11:59:39;4.30;60.40
18287;DHT22;9269;50.838;12.094;2022-12-10T12:02:51;4.30;60.30
18287;DHT22;9269;50.838;12.094;2022-12-10T12:05:36;4.40;60.30
18287;DHT22;9269;50.838;12.094;2022-12-10T12:08:13;4.20;60.30
18287;DHT22;9269;50.838;12.094;2022-12-10T12:11:06;4.20;59.90
18287;DHT22;9269;50.838;12.094;2022-12-10T12:13:41;4.20;60.40
18287;DHT22;9269;50.838;12.094;2022-12-10T12:16:19;4.10;60.20
18287;DHT22;9269;50.838;12.094;2022-12-10T12:18:55;4.10;60.10
18287;DHT22;9269;50.838;12.094;2022-12-10T12:21:27;4.20;60.40
18287;DHT22;9269;50.838;12.094;2022-12-10T12:24:01;4.30;60.20
18287;DHT22;9269;50.838;12.094;2022-12-10T12:26:34;4.20;60.10
18287;DHT22;9269;50.838;12.094;2022-12-10T12:29:13;4.10;60.30
18287;DHT22;9269;50.838;12.094;2022-12-10T12:31:46;4.30;60.10
18287;DHT22;9269;50.838;12.094;2022-12-10T12:34:21;4.40;60.20
18287;DHT22;9269;50.838;12.094;2022-12-10T12:36:50;4.20;60.30
18287;DHT22;9269;50.838;12.094;2022-12-10T12:39:27;4.10;60.10
18287;DHT22;9269;50.838;12.094;2022-12-10T12:42:03;4.40;60.10
18287;DHT22;9269;50.838;12.094;2022-12-10T12:44:49;4.30;60.20
18287;DHT22;9269;50.838;12.094;2022-12-10T12:47:32;4.10;60.30
18287;DHT22;9269;50.838;12.094;2022-12-10T12:50:04;4.30;60.10
18287;DHT22;9269;50.838;12.094;2022-12-10T12:52:40;4.10;59.80
18287;DHT22;9269;50.838;12.094;2022-12-10T12:55:17;4.20;59.80
18287;DHT22;9269;50.838;12.094;2022-12-10T12:57:50;4.30;59.90
18287;DHT22;9269;50.838;12.094;2022-12-10T13:00:22;4.20;59.80
18287;DHT22;9269;50.838;12.094;2022-12-10T13:02:58;4.20;59.70
18287;DHT22;9269;50.838;12.094;2022-12-10T13:05:31;4.10;60.30
18287;DHT22;9269;50.838;12.094;2022-12-10T13:08:30;4.30;59.90
18287;DHT22;9269;50.838;12.094;2022-12-10T13:11:17;4.20;60.20
18287;DHT22;9269;50.838;12.094;2022-12-10T13:14:14;4.50;59.70
18287;DHT22;9269;50.838;12.094;2022-12-10T13:16:58;4.30;60.20
18287;DHT22;9269;50.838;12.094;2022-12-10T13:19:30;4.40;59.90
18287;DHT22;9269;50.838;12.094;2022-12-10T13:22:05;4.40;59.90
18287;DHT22;9269;50.838;12.094;2022-12-10T13:25:10;4.40;60.10
18287;DHT22;9269;50.838;12.094;2022-12-10T13:27:42;4.40;59.60
18287;DHT22;9269;50.838;12.094;2022-12-10T13:30:34;4.10;59.90
18287;DHT22;9269;50.838;12.094;2022-12-10T13:33:14;4.10;60.10
18287;DHT22;9269;50.838;12.094;2022-12-10T13:35:56;4.30;60.00
18287;DHT22;9269;50.838;12.094;2022-12-10T13:38:40;4.50;60.20
18287;DHT22;9269;50.838;12.094;2022-12-10T13:41:16;4.30;60.00
18287;DHT22;9269;50.838;12.094;2022-12-10T13:44:26;4.30;60.10
18287;DHT22;9269;50.838;12.094;2022-12-10T13:47:04;4.40;60.20
18287;DHT22;9269;50.838;12.094;2022-12-10T13:49:42;4.30;60.30
18287;DHT22;9269;50.838;12.094;2022-12-10T13:52:17;4.50;60.10
18287;DHT22;9269;50.838;12.094;2022-12-10T13:55:07;4.30;59.70
18287;DHT22;9269;50.838;12.094;2022-12-10T13:58:13;4.30;60.10
18287;DHT22;9269;50.838;12.094;2022-12-10T14:00:51;4.40;59.80
18287;DHT22;9269;50.838;12.094;2022-12-10T14:03:42;4.40;59.70
18287;DHT22;9269;50.838;12.094;2022-12-10T14:06:15;4.30;59.70
18287;DHT22;9269;50.838;12.094;2022-12-10T14:08:55;4.20;59.90
18287;DHT22;9269;50.838;12.094;2022-12-10T14:11:30;4.10;59.70
18287;DHT22;9269;50.838;12.094;2022-12-10T14:14:09;4.10;60.00
18287;DHT22;9269;50.838;12.094;2022-12-10T14:16:41;4.10;60.00
18287;DHT22;9269;50.838;12.094;2022-12-10T14:19:14;4.00;60.20
18287;DHT22;9269;50.838;12.094;2022-12-10T14:21:45;4.30;60.20
18287;DHT22;9269;50.838;12.094;2022-12-10T14:24:29;4.20;59.90
18287;DHT22;9269;50.838;12.094;2022-12-10T14:27:00;4.30;59.80
18287;DHT22;9269;50.838;12.094;2022-12-10T14:29:29;4.20;59.90
18287;DHT22;9269;50.838;12.094;2022-12-10T14:31:59;4.20;60.20
18287;DHT22;9269;50.838;12.094;2022-12-10T14:34:28;4.30;60.00
18287;DHT22;9269;50.838;12.094;2022-12-10T14:37:01;4.10;59.80
18287;DHT22;9269;50.838;12.094;2022-12-10T14:39:33;4.10;60.10
18287;DHT22;9269;50.838;12.094;2022-12-10T14:42:04;4.10;60.00
18287;DHT22;9269;50.838;12.094;2022-12-10T14:44:36;3.90;60.20
18287;DHT22;9269;50.838;12.094;2022-12-10T14:47:14;4.20;60.20
18287;DHT22;9269;50.838;12.094;2022-12-10T14:49:45;4.20;59.70
18287;DHT22;9269;50.838;12.094;2022-12-10T14:52:16;3.90;59.80
18287;DHT22;9269;50.838;12.094;2022-12-10T14:54:47;3.80;60.10
18287;DHT22;9269;50.838;12.094;2022-12-10T14:57:18;4.10;59.70
18287;DHT22;9269;50.838;12.094;2022-12-10T14:59:50;3.90;60.00
18287;DHT22;9269;50.838;12.094;2022-12-10T15:02:24;3.90;59.90
18287;DHT22;9269;50.838;12.094;2022-12-10T15:04:54;3.80;59.60
18287;DHT22;9269;50.838;12.094;2022-12-10T15:07:26;4.10;59.70
18287;DHT22;9269;50.838;12.094;2022-12-10T15:09:55;3.90;59.80
18287;DHT22;9269;50.838;12.094;2022-12-10T15:12:32;4.10;59.80
18287;DHT22;9269;50.838;12.094;2022-12-10T15:15:07;4.10;59.50
18287;DHT22;9269;50.838;12.094;2022-12-10T15:17:40;4.00;60.00
18287;DHT22;9269;50.838;12.094;2022-12-10T15:20:21;4.00;59.80
18287;DHT22;9269;50.838;12.094;2022-12-10T15:22:50;3.90;59.70
18287;DHT22;9269;50.838;12.094;2022-12-10T15:25:22;4.00;59.90
18287;DHT22;9269;50.838;12.094;2022-12-10T15:27:59;4.00;59.90
18287;DHT22;9269;50.838;12.094;2022-12-10T15:30:36;4.10;60.00
18287;DHT22;9269;50.838;12.094;2022-12-10T15:33:29;4.20;60.00
18287;DHT22;9269;50.838;12.094;2022-12-10T15:35:59;4.00;59.50
18287;DHT22;9269;50.838;12.094;2022-12-10T15:38:29;4.20;59.90
18287;DHT22;9269;50.838;12.094;2022-12-10T15:40:59;4.00;59.80
18287;DHT22;9269;50.838;12.094;2022-12-10T15:43:29;4.00;59.50
18287;DHT22;9269;50.838;12.094;2022-12-10T15:45:58;4.10;59.90
18287;DHT22;9269;50.838;12.094;2022-12-10T15:48:30;3.80;59.50
18287;DHT22;9269;50.838;12.094;2022-12-10T15:50:59;3.80;59.80
18287;DHT22;9269;50.838;12.094;2022-12-10T15:53:37;3.90;59.50
18287;DHT22;9269;50.838;12.094;2022-12-10T15:56:07;4.00;59.80
18287;DHT22;9269;50.838;12.094;2022-12-10T15:58:35;4.10;59.80
18287;DHT22;9269;50.838;12.094;2022-12-10T16:01:04;4.00;59.80
18287;DHT22;9269;50.838;12.094;2022-12-10T16:03:34;4.00;59.80
18287;DHT22;9269;50.838;12.094;2022-12-10T16:06:06;4.00;60.00
18287;DHT22;9269;50.838;12.094;2022-12-10T16:08:35;3.90;59.90
18287;DHT22;9269;50.838;12.094;2022-12-10T16:11:14;4.00;59.50
18287;DHT22;9269;50.838;12.094;2022-12-10T16:13:48;4.00;59.70
18287;DHT22;9269;50.838;12.094;2022-12-10T16:16:17;3.90;60.00
18287;DHT22;9269;50.838;12.094;2022-12-10T16:18:47;3.90;59.70
18287;DHT22;9269;50.838;12.094;2022-12-10T16:21:16;3.80;60.10
18287;DHT22;9269;50.838;12.094;2022-12-10T16:23:45;3.90;59.80